createdAt,value
2022-12-11T00:02:42.554Z,58.46
2022-12-11T00:03:42.496Z,60.26
2022-12-11T00:07:08.732Z,61.29
2022-12-11T00:12:01.231Z,57.45
2022-12-11T00:13:01.197Z,60.22
2022-12-11T00:14:01.194Z,59.50
2022-12-11T00:18:52.820Z,61.78
2022-12-11T00:19:52.815Z,59.23
2022-12-11T00:24:45.311Z,60.03
2022-12-11T00:25:45.295Z,59.45
2022-12-11T00:26:45.303Z,61.39
2022-12-11T00:30:11.524Z,57.28
2022-12-11T00:31:12.262Z,58.66
2022-12-11T00:32:12.636Z,57.73
2022-12-11T00:39:57.681Z,61.10
2022-12-11T00:46:16.593Z,57.72
2022-12-11T00:49:48.073Z,58.57
2022-12-11T00:50:43.680Z,59.00
2022-12-11T00:51:42.692Z,60.39
2022-12-11T00:52:42.659Z,59.31
2022-12-11T00:53:43.777Z,59.06
2022-12-11T00:54:43.762Z,59.16
2022-12-11T00:55:43.755Z,57.74
2022-12-11T00:56:43.754Z,59.25
2022-12-11T00:57:43.736Z,62.30
2022-12-11T00:58:43.724Z,60.76
2022-12-11T00:59:43.704Z,61.47
2022-12-11T01:00:43.689Z,58.43
2022-12-11T01:01:43.760Z,60.27
2022-12-11T01:02:43.740Z,56.73
2022-12-11T01:03:43.684Z,57.65
2022-12-11T01:04:43.670Z,58.02
2022-12-11T01:05:43.664Z,56.50
2022-12-11T01:06:43.671Z,56.74
2022-12-11T01:07:43.709Z,59.83
2022-12-11T01:08:43.626Z,60.99
2022-12-11T01:09:43.618Z,57.73
2022-12-11T01:10:43.696Z,57.14
2022-12-11T01:11:43.628Z,56.27
2022-12-11T01:12:43.587Z,55.26
2022-12-11T01:13:43.590Z,61.90
2022-12-11T01:14:43.579Z,56.46
2022-12-11T01:15:43.564Z,59.72
2022-12-11T01:16:43.589Z,60.47
2022-12-11T01:17:43.544Z,57.22
2022-12-11T01:18:43.532Z,57.95
2022-12-11T01:19:43.520Z,57.93
2022-12-11T01:20:43.503Z,58.68
2022-12-11T01:21:43.517Z,59.12
2022-12-11T01:22:43.506Z,57.62
2022-12-11T01:23:43.488Z,56.63
2022-12-11T01:24:43.464Z,56.30
2022-12-11T01:30:54.899Z,60.38
2022-12-11T01:31:54.841Z,55.77
2022-12-11T01:32:54.821Z,55.14
2022-12-11T01:36:21.137Z,55.86
2022-12-11T01:37:21.151Z,55.99
2022-12-11T01:38:21.112Z,58.44
2022-12-11T01:39:21.106Z,58.36
2022-12-11T01:40:21.093Z,58.67
2022-12-11T01:41:21.085Z,57.32
2022-12-11T01:42:21.092Z,58.54
2022-12-11T01:43:21.064Z,58.36
2022-12-11T01:44:21.050Z,60.69
2022-12-11T01:45:21.042Z,58.80
2022-12-11T01:46:21.082Z,60.59
2022-12-11T01:47:21.044Z,57.12
2022-12-11T01:48:21.010Z,57.89
2022-12-11T01:49:21.006Z,57.43
2022-12-11T01:50:20.988Z,56.24
2022-12-11T01:51:28.092Z,57.72
2022-12-11T01:52:20.986Z,61.42
2022-12-11T01:53:20.962Z,57.81
2022-12-11T01:54:20.952Z,57.17
2022-12-11T01:55:20.939Z,55.66
2022-12-11T01:56:20.930Z,56.90
2022-12-11T01:57:20.953Z,57.86
2022-12-11T01:58:20.917Z,58.38
2022-12-11T01:59:20.905Z,59.48
2022-12-11T02:00:20.891Z,58.56
2022-12-11T02:01:20.986Z,56.76
2022-12-11T02:02:20.993Z,57.93
2022-12-11T02:03:20.869Z,56.82
2022-12-11T02:04:21.973Z,56.75
2022-12-11T02:05:21.956Z,61.00
2022-12-11T02:06:21.960Z,60.02
2022-12-11T02:07:21.968Z,60.55
2022-12-11T02:08:21.994Z,57.68
2022-12-11T02:09:21.922Z,58.45
2022-12-11T02:10:21.915Z,56.99
2022-12-11T02:11:21.931Z,57.41
2022-12-11T02:12:21.915Z,58.91
2022-12-11T02:13:21.910Z,58.68
2022-12-11T02:14:21.890Z,57.69
2022-12-11T02:15:21.870Z,57.36
2022-12-11T02:16:21.879Z,57.96
2022-12-11T02:17:21.862Z,58.99
2022-12-11T02:18:21.839Z,60.05
2022-12-11T02:19:21.846Z,58.23
2022-12-11T02:20:21.821Z,57.36
2022-12-11T02:21:21.814Z,56.25
2022-12-11T02:22:21.824Z,59.51
2022-12-11T02:23:21.821Z,57.38
2022-12-11T02:24:21.783Z,58.09
2022-12-11T02:25:21.775Z,58.02
2022-12-11T02:26:21.759Z,59.40
2022-12-11T02:27:21.761Z,59.73
2022-12-11T02:28:21.748Z,58.42
2022-12-11T02:29:21.724Z,58.77
2022-12-11T02:30:21.723Z,58.60
2022-12-11T02:31:21.766Z,59.84
2022-12-11T02:32:21.729Z,61.63
2022-12-11T02:33:21.684Z,58.19
2022-12-11T02:34:21.693Z,58.02
2022-12-11T02:35:21.666Z,59.21
2022-12-11T02:36:21.663Z,56.40
2022-12-11T02:37:21.684Z,57.03
2022-12-11T02:38:21.638Z,58.02
2022-12-11T02:39:21.661Z,57.64
2022-12-11T02:40:21.622Z,60.19
2022-12-11T02:41:21.596Z,58.19
2022-12-11T02:42:21.617Z,59.13
2022-12-11T02:43:21.607Z,60.87
2022-12-11T02:44:21.581Z,58.77
2022-12-11T02:45:21.570Z,57.78
2022-12-11T02:46:21.569Z,57.38
2022-12-11T02:47:21.549Z,58.82
2022-12-11T02:48:21.558Z,58.16
2022-12-11T02:49:21.524Z,59.09
2022-12-11T02:50:21.521Z,59.58
2022-12-11T02:51:21.510Z,60.70
2022-12-11T02:52:21.504Z,60.12
2022-12-11T02:53:21.512Z,57.39
2022-12-11T02:54:21.473Z,60.08
2022-12-11T02:55:21.470Z,61.45
2022-12-11T02:56:21.544Z,59.02
2022-12-11T02:57:21.456Z,58.19
2022-12-11T02:58:21.457Z,55.90
2022-12-11T02:59:21.448Z,59.85
2022-12-11T03:00:21.436Z,61.24
2022-12-11T03:01:21.433Z,62.22
2022-12-11T03:02:21.441Z,61.19
2022-12-11T03:03:21.401Z,61.17
2022-12-11T03:04:22.384Z,57.60
2022-12-11T03:05:21.374Z,60.62
2022-12-11T03:06:21.388Z,57.24
2022-12-11T03:07:21.357Z,61.34
2022-12-11T03:08:21.396Z,59.20
2022-12-11T03:09:21.326Z,59.67
2022-12-11T03:10:21.318Z,61.65
2022-12-11T03:11:21.314Z,66.15
2022-12-11T03:12:21.300Z,60.47
2022-12-11T03:13:21.312Z,58.35
2022-12-11T03:14:21.271Z,59.86
2022-12-11T03:15:21.266Z,58.85
2022-12-11T03:16:21.277Z,61.62
2022-12-11T03:17:21.259Z,58.43
2022-12-11T03:18:21.257Z,56.61
2022-12-11T03:19:21.228Z,59.17
2022-12-11T03:20:21.213Z,58.54
2022-12-11T03:21:22.201Z,57.86
2022-12-11T03:22:21.196Z,63.87
2022-12-11T03:23:21.204Z,61.03
2022-12-11T03:24:21.176Z,58.83
2022-12-11T03:25:21.160Z,59.96
2022-12-11T03:26:21.151Z,57.28
2022-12-11T03:27:21.144Z,55.20
2022-12-11T03:28:21.155Z,58.36
2022-12-11T03:29:21.121Z,56.55
2022-12-11T03:30:21.126Z,54.92
2022-12-11T03:31:21.105Z,57.49
2022-12-11T03:32:21.097Z,55.39
2022-12-11T03:33:21.089Z,58.94
2022-12-11T03:34:21.079Z,60.02
2022-12-11T03:35:21.067Z,58.80
2022-12-11T03:36:21.056Z,55.29
2022-12-11T03:37:21.038Z,57.93
2022-12-11T03:38:21.053Z,55.41
2022-12-11T03:42:06.164Z,57.30
2022-12-11T03:43:06.165Z,57.64
2022-12-11T03:44:06.136Z,56.28
2022-12-11T03:45:06.137Z,56.58
2022-12-11T03:46:06.180Z,57.78
2022-12-11T03:47:06.105Z,58.49
2022-12-11T03:48:06.147Z,57.46
2022-12-11T03:49:06.081Z,57.49
2022-12-11T03:50:06.071Z,56.21
2022-12-11T03:51:06.080Z,56.26
2022-12-11T03:52:06.049Z,55.21
2022-12-11T03:53:06.047Z,55.59
2022-12-11T03:54:06.025Z,56.23
2022-12-11T03:55:06.025Z,58.38
2022-12-11T03:56:06.013Z,55.21
2022-12-11T04:00:59.004Z,55.66
2022-12-11T04:01:59.037Z,60.04
2022-12-11T04:02:59.000Z,56.80
2022-12-11T04:04:02.316Z,56.84
2022-12-11T04:11:44.977Z,58.86
2022-12-11T04:12:44.992Z,58.99
2022-12-11T04:20:07.227Z,56.19
2022-12-11T04:21:07.203Z,59.17
2022-12-11T04:22:07.197Z,58.27
2022-12-11T04:23:07.199Z,55.96
2022-12-11T04:24:07.180Z,57.74
2022-12-11T04:25:07.164Z,58.29
2022-12-11T04:26:07.159Z,59.62
2022-12-11T04:27:07.145Z,59.61
2022-12-11T04:28:07.154Z,57.09
2022-12-11T04:29:07.124Z,56.49
2022-12-11T04:30:07.120Z,57.19
2022-12-11T04:31:07.135Z,56.30
2022-12-11T04:32:07.102Z,56.59
2022-12-11T04:33:07.098Z,55.83
2022-12-11T04:34:07.084Z,57.10
2022-12-11T04:35:07.076Z,59.62
2022-12-11T04:36:07.053Z,58.59
2022-12-11T04:37:07.041Z,55.83
2022-12-11T04:38:07.103Z,59.47
2022-12-11T04:39:07.022Z,59.32
2022-12-11T04:40:07.010Z,59.25
2022-12-11T04:41:07.003Z,55.29
2022-12-11T04:42:08.105Z,57.09
2022-12-11T04:43:08.118Z,55.69
2022-12-11T04:44:08.086Z,55.86
2022-12-11T04:51:45.719Z,56.17
2022-12-11T04:52:45.709Z,57.45
2022-12-11T04:53:45.714Z,57.91
2022-12-11T04:54:45.675Z,57.37
2022-12-11T04:55:45.666Z,54.44
2022-12-11T04:56:45.658Z,55.08
2022-12-11T04:57:45.648Z,55.37
2022-12-11T04:58:45.652Z,57.05
2022-12-11T04:59:45.628Z,54.79
2022-12-11T05:00:45.617Z,57.37
2022-12-11T05:01:45.652Z,56.22
2022-12-11T05:02:45.651Z,56.30
2022-12-11T05:03:45.617Z,56.57
2022-12-11T05:04:45.623Z,57.36
2022-12-11T05:05:45.575Z,55.53
2022-12-11T05:09:11.814Z,56.54
2022-12-11T05:10:11.803Z,57.29
2022-12-11T05:11:11.796Z,55.19
2022-12-11T05:12:11.779Z,58.49
2022-12-11T05:13:11.792Z,57.12
2022-12-11T05:14:11.757Z,56.38
2022-12-11T05:17:38.001Z,56.54
2022-12-11T05:18:38.012Z,56.77
2022-12-11T05:19:44.790Z,58.93
2022-12-11T05:20:37.966Z,55.33
2022-12-11T05:21:37.944Z,57.46
2022-12-11T05:22:37.943Z,57.15
2022-12-11T05:23:37.943Z,56.67
2022-12-11T05:24:37.922Z,58.93
2022-12-11T05:25:37.909Z,55.75
2022-12-11T05:26:37.898Z,55.39
2022-12-11T05:27:37.885Z,56.90
2022-12-11T05:28:37.902Z,57.62
2022-12-11T05:29:37.866Z,56.86
2022-12-11T05:30:37.862Z,54.69
2022-12-11T05:31:37.945Z,54.74
2022-12-11T05:32:37.836Z,57.41
2022-12-11T05:33:37.846Z,57.13
2022-12-11T05:34:37.823Z,58.95
2022-12-11T05:35:37.810Z,58.00
2022-12-11T05:36:37.796Z,56.10
2022-12-11T05:37:37.796Z,58.00
2022-12-11T05:41:04.029Z,55.16
2022-12-11T05:44:30.262Z,55.27
2022-12-11T05:45:30.243Z,55.59
2022-12-11T05:46:30.287Z,55.37
2022-12-11T05:47:30.229Z,57.63
2022-12-11T05:48:30.233Z,58.62
2022-12-11T05:49:31.185Z,57.55
2022-12-11T05:50:30.194Z,57.23
2022-12-11T05:51:30.183Z,55.76
2022-12-11T05:52:30.168Z,57.25
2022-12-11T05:53:30.178Z,56.58
2022-12-11T05:54:30.156Z,58.29
2022-12-11T05:55:30.145Z,58.60
2022-12-11T05:56:30.131Z,56.47
2022-12-11T05:57:30.116Z,58.21
2022-12-11T05:58:30.124Z,57.41
2022-12-11T05:59:31.221Z,59.60
2022-12-11T06:00:36.061Z,58.63
2022-12-11T06:04:17.384Z,58.33
2022-12-11T06:05:17.362Z,57.95
2022-12-11T06:06:17.357Z,58.89
2022-12-11T06:07:17.339Z,59.13
2022-12-11T06:08:17.388Z,59.91
2022-12-11T06:09:17.328Z,57.85
2022-12-11T06:10:17.310Z,57.40
2022-12-11T06:11:22.328Z,59.32
2022-12-11T06:12:19.421Z,58.43
2022-12-11T06:13:18.399Z,58.30
2022-12-11T06:14:18.409Z,59.60
2022-12-11T06:15:18.379Z,59.87
2022-12-11T06:16:18.427Z,58.81
2022-12-11T06:17:18.363Z,60.43
2022-12-11T06:18:18.345Z,60.60
2022-12-11T06:19:18.366Z,60.80
2022-12-11T06:20:18.335Z,59.69
2022-12-11T06:21:18.323Z,60.75
2022-12-11T06:22:18.307Z,59.07
2022-12-11T06:23:18.294Z,61.58
2022-12-11T06:24:18.307Z,60.42
2022-12-11T06:25:18.310Z,60.05
2022-12-11T06:26:18.268Z,58.81
2022-12-11T06:27:18.253Z,59.09
2022-12-11T06:28:18.245Z,60.67
2022-12-11T06:29:18.253Z,60.65
2022-12-11T06:30:18.244Z,61.43
2022-12-11T06:31:18.283Z,62.08
2022-12-11T06:32:18.207Z,59.80
2022-12-11T06:33:18.196Z,60.39
2022-12-11T06:34:18.196Z,61.06
2022-12-11T06:35:18.171Z,59.43
2022-12-11T06:36:18.164Z,61.27
2022-12-11T06:37:18.172Z,61.64
2022-12-11T06:38:18.147Z,60.82
2022-12-11T06:39:18.178Z,61.56
2022-12-11T06:40:18.141Z,60.44
2022-12-11T06:41:18.129Z,60.72
2022-12-11T06:42:18.123Z,61.36
2022-12-11T06:43:18.103Z,58.03
2022-12-11T06:44:18.117Z,59.48
2022-12-11T06:45:18.089Z,59.18
2022-12-11T06:46:18.103Z,57.91
2022-12-11T06:47:18.069Z,59.80
2022-12-11T06:48:18.083Z,58.58
2022-12-11T06:49:18.067Z,59.82
2022-12-11T06:50:18.032Z,59.83
2022-12-11T06:51:18.018Z,59.75
2022-12-11T06:52:18.714Z,60.13
2022-12-11T06:53:18.998Z,59.86
2022-12-11T06:54:18.009Z,62.06
2022-12-11T06:55:17.979Z,57.72
2022-12-11T06:56:17.983Z,57.33
2022-12-11T06:57:17.961Z,57.47
2022-12-11T06:58:17.957Z,58.55
2022-12-11T06:59:17.971Z,58.50
2022-12-11T07:00:17.938Z,58.79
2022-12-11T07:01:18.002Z,57.93
2022-12-11T07:02:17.955Z,59.32
2022-12-11T07:03:17.905Z,57.77
2022-12-11T07:04:17.918Z,59.71
2022-12-11T07:05:17.883Z,58.45
2022-12-11T07:06:17.880Z,57.69
2022-12-11T07:07:17.860Z,58.73
2022-12-11T07:08:17.912Z,59.16
2022-12-11T07:09:17.862Z,57.33
2022-12-11T07:10:17.831Z,58.99
2022-12-11T07:11:17.814Z,58.35
2022-12-11T07:12:17.813Z,56.98
2022-12-11T07:13:17.803Z,58.50
2022-12-11T07:14:17.814Z,57.49
2022-12-11T07:15:17.782Z,57.50
2022-12-11T07:16:17.903Z,57.33
2022-12-11T07:17:17.767Z,57.85
2022-12-11T07:18:17.747Z,57.83
2022-12-11T07:19:17.777Z,57.79
2022-12-11T07:20:17.722Z,55.69
2022-12-11T07:21:18.806Z,57.98
2022-12-11T07:22:17.701Z,56.69
2022-12-11T07:23:17.703Z,59.53
2022-12-11T07:24:17.711Z,56.37
2022-12-11T07:25:17.671Z,55.16
2022-12-11T07:26:17.679Z,57.31
2022-12-11T07:27:17.657Z,58.58
2022-12-11T07:28:17.657Z,59.08
2022-12-11T07:29:17.656Z,57.76
2022-12-11T07:30:17.634Z,58.16
2022-12-11T07:31:17.726Z,57.36
2022-12-11T07:32:17.691Z,57.28
2022-12-11T07:33:17.600Z,57.21
2022-12-11T07:34:17.605Z,57.14
2022-12-11T07:35:17.579Z,58.65
2022-12-11T07:36:17.565Z,58.39
2022-12-11T07:37:17.565Z,56.69
2022-12-11T07:38:17.548Z,59.65
2022-12-11T07:39:17.617Z,57.58
2022-12-11T07:40:17.535Z,59.95
2022-12-11T07:41:17.526Z,58.29
2022-12-11T07:42:17.503Z,58.24
2022-12-11T07:43:17.511Z,59.61
2022-12-11T07:44:17.523Z,57.36
2022-12-11T07:45:17.491Z,61.47
2022-12-11T07:46:17.488Z,58.36
2022-12-11T07:47:17.467Z,59.13
2022-12-11T07:48:17.466Z,58.76
2022-12-11T07:49:17.468Z,58.19
2022-12-11T07:50:17.438Z,58.64
2022-12-11T07:51:17.431Z,58.26
2022-12-11T07:52:49.324Z,57.40
2022-12-11T07:53:17.411Z,58.28
2022-12-11T07:54:17.402Z,57.58
2022-12-11T07:55:17.396Z,57.51
2022-12-11T07:56:17.383Z,58.66
2022-12-11T07:57:17.374Z,57.19
2022-12-11T07:58:17.351Z,58.17
2022-12-11T07:59:17.379Z,58.56
2022-12-11T08:00:17.366Z,58.67
2022-12-11T08:01:17.378Z,59.51
2022-12-11T08:02:17.360Z,60.53
2022-12-11T08:03:17.338Z,59.11
2022-12-11T08:04:17.325Z,59.60
2022-12-11T08:05:17.321Z,58.44
2022-12-11T08:06:17.284Z,59.60
2022-12-11T08:07:17.275Z,56.78
2022-12-11T08:08:17.357Z,60.74
2022-12-11T08:09:20.979Z,59.29
2022-12-11T08:10:18.235Z,58.34
2022-12-11T08:11:17.234Z,59.13
2022-12-11T08:12:17.237Z,58.35
2022-12-11T08:13:17.211Z,58.98
2022-12-11T08:14:17.208Z,57.22
2022-12-11T08:15:17.195Z,57.97
2022-12-11T08:16:17.224Z,58.77
2022-12-11T08:17:17.177Z,59.62
2022-12-11T08:18:17.151Z,57.96
2022-12-11T08:19:17.176Z,60.09
2022-12-11T08:20:17.150Z,61.16
2022-12-11T08:21:17.135Z,62.01
2022-12-11T08:22:17.128Z,60.44
2022-12-11T08:23:17.131Z,60.59
2022-12-11T08:24:17.123Z,61.92
2022-12-11T08:25:17.094Z,61.22
2022-12-11T08:26:17.132Z,59.67
2022-12-11T08:27:17.078Z,62.19
2022-12-11T08:28:17.071Z,61.14
2022-12-11T08:29:17.080Z,59.24
2022-12-11T08:30:17.052Z,59.14
2022-12-11T08:31:17.056Z,60.65
2022-12-11T08:32:17.030Z,61.87
2022-12-11T08:33:17.013Z,60.05
2022-12-11T08:34:17.007Z,61.42
2022-12-11T08:35:17.021Z,61.73
2022-12-11T08:36:16.978Z,61.80
2022-12-11T08:37:16.979Z,61.54
2022-12-11T08:38:19.674Z,61.66
2022-12-11T08:39:17.972Z,60.65
2022-12-11T08:40:16.944Z,61.98
2022-12-11T08:41:16.932Z,63.75
2022-12-11T08:42:16.932Z,63.46
2022-12-11T08:43:16.953Z,63.09
2022-12-11T08:44:17.193Z,62.53
2022-12-11T08:45:16.927Z,62.47
2022-12-11T08:46:16.902Z,63.99
2022-12-11T08:47:16.868Z,64.13
2022-12-11T08:48:16.865Z,64.17
2022-12-11T08:49:16.841Z,64.18
2022-12-11T08:50:16.848Z,65.55
2022-12-11T08:51:16.857Z,64.48
2022-12-11T08:52:16.816Z,64.92
2022-12-11T08:53:16.811Z,61.37
2022-12-11T08:54:16.787Z,61.60
2022-12-11T08:55:16.805Z,62.30
2022-12-11T08:56:16.782Z,63.10
2022-12-11T08:57:16.769Z,62.21
2022-12-11T08:58:16.768Z,62.66
2022-12-11T08:59:16.806Z,61.89
2022-12-11T09:00:16.755Z,62.59
2022-12-11T09:01:16.785Z,63.02
2022-12-11T09:02:16.726Z,62.89
2022-12-11T09:03:16.811Z,62.59
2022-12-11T09:04:16.707Z,61.59
2022-12-11T09:05:16.712Z,60.22
2022-12-11T09:06:16.680Z,62.83
2022-12-11T09:07:16.667Z,63.57
2022-12-11T09:08:16.692Z,61.17
2022-12-11T09:09:16.649Z,61.22
2022-12-11T09:10:16.655Z,61.20
2022-12-11T09:11:16.644Z,59.97
2022-12-11T09:12:16.624Z,62.46
2022-12-11T09:13:16.617Z,62.66
2022-12-11T09:14:16.603Z,62.86
2022-12-11T09:15:16.614Z,62.13
2022-12-11T09:16:16.649Z,65.04
2022-12-11T09:17:16.587Z,63.41
2022-12-11T09:18:16.562Z,63.32
2022-12-11T09:19:16.565Z,61.98
2022-12-11T09:20:16.567Z,63.12
2022-12-11T09:21:16.542Z,63.16
2022-12-11T09:22:16.517Z,61.56
2022-12-11T09:23:16.522Z,61.71
2022-12-11T09:24:16.522Z,62.24
2022-12-11T09:25:16.530Z,61.50
2022-12-11T09:26:16.492Z,61.10
2022-12-11T09:27:16.474Z,59.97
2022-12-11T09:28:16.476Z,61.44
2022-12-11T09:29:16.461Z,62.21
2022-12-11T09:30:16.466Z,62.16
2022-12-11T09:31:16.500Z,61.88
2022-12-11T09:32:16.435Z,61.43
2022-12-11T09:33:16.426Z,61.25
2022-12-11T09:34:16.479Z,61.14
2022-12-11T09:35:16.426Z,61.14
2022-12-11T09:36:16.409Z,61.24
2022-12-11T09:37:16.396Z,62.16
2022-12-11T09:38:16.381Z,62.73
2022-12-11T09:39:16.374Z,61.76
2022-12-11T09:40:16.397Z,60.57
2022-12-11T09:41:16.352Z,62.26
2022-12-11T09:42:16.323Z,60.85
2022-12-11T09:43:16.314Z,61.14
2022-12-11T09:44:16.331Z,60.54
2022-12-11T09:45:16.320Z,61.35
2022-12-11T09:46:16.322Z,62.27
2022-12-11T09:47:16.281Z,61.73
2022-12-11T09:48:16.277Z,62.71
2022-12-11T09:49:16.263Z,61.75
2022-12-11T09:50:16.259Z,63.16
2022-12-11T09:51:16.256Z,62.69
2022-12-11T09:52:21.232Z,62.64
2022-12-11T09:53:16.232Z,63.06
2022-12-11T09:54:18.036Z,63.16
2022-12-11T09:55:16.228Z,63.60
2022-12-11T09:56:16.194Z,62.88
2022-12-11T09:57:16.185Z,63.04
